Time;durP1;ratioP1;P1;durP2;ratioP2;P2;SDS_P1;SDS_P2;PMS_P1;PMS_P2;Temp;Humidity;BMP_temperature;BMP_pressure;BME280_temperature;BME280_humidity;BME280_pressure;Samples;Min_cycle;Max_cycle;Signal;HPM_P1;HPM_P2
2022/09/18 00:01:00;;;;;;;;;5.33;5.33;;;;;15.96;45.00;101703.56;4935606;28;45439;-72
2022/09/18 00:03:27;;;;;;;;;4.67;3.67;;;;;15.92;44.64;101709.72;4934227;28;45973;-71
2022/09/18 00:05:54;;;;;;;;;4.00;4.00;;;;;15.97;44.87;101710.63;4917608;28;45585;-65
2022/09/18 00:08:20;;;;;;;;;4.67;4.00;;;;;15.88;44.90;101708.88;4993858;28;45486;-66
2022/09/18 00:10:45;;;;;;;;;4.00;3.00;;;;;15.82;45.02;101694.81;4975633;28;45486;-71
2022/09/18 00:13:13;;;;;;;;;3.00;2.33;;;;;15.81;45.58;101698.34;4934866;28;45898;-70
2022/09/18 00:15:38;;;;;;;;;3.67;3.00;;;;;15.76;44.87;101689.59;4918265;28;45396;-71
2022/09/18 00:18:04;;;;;;;;;3.67;2.33;;;;;15.78;45.08;101701.91;4939005;28;45464;-70
2022/09/18 00:20:35;;;;;;;;;3.67;2.00;;;;;15.83;44.91;101700.09;4939315;28;45486;-67
2022/09/18 00:23:01;;;;;;;;;2.67;2.67;;;;;15.82;45.16;101697.47;4935180;28;46150;-68
2022/09/18 00:25:27;;;;;;;;;1.33;1.33;;;;;15.83;44.85;101697.47;4933085;28;45653;-65
2022/09/18 00:27:52;;;;;;;;;4.67;2.00;;;;;15.89;44.60;101696.53;4933569;28;45477;-64
2022/09/18 00:30:18;;;;;;;;;2.00;2.00;;;;;15.92;45.58;101696.53;4936593;28;45424;-65
2022/09/18 00:32:44;;;;;;;;;4.00;3.00;;;;;15.66;45.49;101683.41;4938231;28;45351;-66
2022/09/18 00:35:09;;;;;;;;;3.00;3.00;;;;;15.82;45.28;101692.19;4938179;28;45497;-64
2022/09/18 00:37:35;;;;;;;;;4.33;2.00;;;;;15.85;44.92;101684.22;4937904;28;45693;-65
2022/09/18 00:40:01;;;;;;;;;3.00;3.00;;;;;15.85;45.35;101692.16;4938782;28;45554;-66
2022/09/18 00:42:26;;;;;;;;;4.00;3.00;;;;;15.71;46.06;101701.91;4934404;28;45337;-65
2022/09/18 00:44:52;;;;;;;;;4.33;2.33;;;;;15.65;46.17;101694.84;4932306;28;46187;-68
2022/09/18 00:47:49;;;;;;;;;2.00;2.00;;;;;15.67;46.11;101704.53;4933716;28;45880;-65
2022/09/18 00:50:23;;;;;;;;;3.00;3.00;;;;;15.74;45.29;101701.91;4928492;28;45441;-65
2022/09/18 00:52:57;;;;;;;;;3.00;3.00;;;;;15.80;45.30;101694.84;4933886;28;45473;-65
2022/09/18 00:55:32;;;;;;;;;2.00;2.00;;;;;15.81;45.25;101699.22;4934092;28;45354;-69
2022/09/18 00:58:01;;;;;;;;;3.00;2.00;;;;;15.78;45.93;101703.63;4933937;28;45494;-66
2022/09/18 01:00:28;;;;;;;;;3.33;3.00;;;;;15.63;45.94;101683.41;4936403;28;45892;-70
2022/09/18 01:02:55;;;;;;;;;3.67;3.00;;;;;15.62;46.17;101695.75;4937830;28;45337;-69
2022/09/18 01:05:50;;;;;;;;;2.67;2.00;;;;;15.64;45.98;101706.31;4937805;28;45639;-69
2022/09/18 01:08:19;;;;;;;;;3.00;2.00;;;;;15.68;46.21;101708.03;4938031;28;45167;-66
2022/09/18 01:11:02;;;;;;;;;2.00;2.00;;;;;15.57;46.19;101702.81;4937937;28;45458;-65
2022/09/18 01:13:56;;;;;;;;;2.00;2.00;;;;;15.40;47.02;101697.59;4933755;28;46450;-66
2022/09/18 01:16:34;;;;;;;;;3.67;2.33;;;;;15.47;46.50;101701.06;4935092;28;45389;-64
2022/09/18 01:19:25;;;;;;;;;3.33;2.00;;;;;15.47;46.83;101703.69;4937491;28;45386;-65
2022/09/18 01:22:19;;;;;;;;;3.00;3.00;;;;;15.43;46.59;101696.69;4937434;28;45348;-64
2022/09/18 01:25:16;;;;;;;;;3.00;2.00;;;;;15.46;46.37;101694.91;4932890;28;45437;-65
2022/09/18 01:28:07;;;;;;;;;2.67;2.00;;;;;15.40;46.91;101699.31;4921718;28;45505;-66
2022/09/18 01:30:37;;;;;;;;;3.00;2.00;;;;;15.20;47.27;101689.69;4936742;28;45427;-65
2022/09/18 01:33:12;;;;;;;;;2.33;2.33;;;;;15.35;46.55;101691.44;4933004;28;45320;-65
2022/09/18 01:35:47;;;;;;;;;3.00;3.00;;;;;15.18;46.79;101667.69;4930604;28;46538;-64
2022/09/18 01:38:20;;;;;;;;;2.00;2.00;;;;;15.09;46.75;101667.75;4935835;28;45412;-65
2022/09/18 01:40:55;;;;;;;;;2.00;2.00;;;;;15.21;47.12;101694.09;4933811;28;45507;-69
2022/09/18 01:43:24;;;;;;;;;3.33;2.00;;;;;15.14;47.12;101678.25;4933444;28;45364;-70
2022/09/18 01:45:54;;;;;;;;;2.00;2.00;;;;;15.15;47.03;101666.84;4934693;28;45604;-69
2022/09/18 01:48:33;;;;;;;;;0.00;0.00;;;;;15.18;47.21;101678.25;4937110;28;45395;-69
2022/09/18 01:51:19;;;;;;;;;3.67;2.00;;;;;15.24;47.11;101698.50;4917169;28;45376;-65
2022/09/18 01:53:51;;;;;;;;;3.33;3.00;;;;;15.22;47.26;101680.03;4936196;28;45412;-65
2022/09/18 01:56:25;;;;;;;;;2.00;2.00;;;;;15.23;47.16;101673.88;4932479;28;46300;-65
2022/09/18 01:58:56;;;;;;;;;3.33;3.00;;;;;15.30;46.88;101669.44;4933181;28;45436;-65
2022/09/18 02:01:27;;;;;;;;;2.33;2.00;;;;;15.23;47.43;101688.81;4916023;28;45503;-66
2022/09/18 02:04:01;;;;;;;;;4.00;1.67;;;;;15.23;46.79;101687.06;4917870;28;45510;-65
2022/09/18 02:06:33;;;;;;;;;2.00;1.33;;;;;15.18;47.10;101680.03;4919543;28;45641;-64
2022/09/18 02:09:01;;;;;;;;;2.00;2.00;;;;;15.11;47.63;101684.44;4935079;28;45313;-64
2022/09/18 02:11:27;;;;;;;;;1.67;1.67;;;;;15.13;47.48;101682.66;4933464;28;45739;-69
2022/09/18 02:14:06;;;;;;;;;2.00;1.00;;;;;15.08;47.12;101675.66;4932886;28;45353;-68
2022/09/18 02:16:41;;;;;;;;;3.67;2.00;;;;;14.99;47.34;101655.44;4932448;28;46286;-65
2022/09/18 02:19:27;;;;;;;;;3.00;3.00;;;;;15.12;47.31;101682.69;4934536;28;45362;-67
2022/09/18 02:21:55;;;;;;;;;3.00;3.00;;;;;15.17;47.75;101678.28;4933935;28;45443;-66
2022/09/18 02:24:26;;;;;;;;;2.33;2.00;;;;;14.98;48.05;101690.63;4932844;28;45534;-65
2022/09/18 02:26:53;;;;;;;;;1.00;1.00;;;;;15.02;47.43;101679.19;4932670;28;45502;-66
2022/09/18 02:29:22;;;;;;;;;2.00;1.67;;;;;15.04;47.10;101675.66;4932459;28;45516;-67
2022/09/18 02:31:48;;;;;;;;;2.00;2.00;;;;;15.04;47.91;101682.69;4932213;28;45489;-65
2022/09/18 02:34:16;;;;;;;;;5.00;2.00;;;;;14.99;47.85;101668.63;4934655;28;45376;-66
2022/09/18 02:36:54;;;;;;;;;2.00;2.00;;;;;14.97;47.62;101684.47;4934864;28;47711;-65
2022/09/18 02:39:51;;;;;;;;;2.00;2.00;;;;;14.96;47.29;101684.47;4935317;28;45463;-65
2022/09/18 02:42:42;;;;;;;;;4.33;2.67;;;;;15.04;46.81;101678.31;4932456;28;45447;-65
2022/09/18 02:45:24;;;;;;;;;3.67;3.67;;;;;15.12;46.81;101675.66;4932392;28;45796;-69
2022/09/18 02:47:53;;;;;;;;;7.00;4.00;;;;;15.19;47.05;101677.41;4933254;28;47736;-65
2022/09/18 02:50:48;;;;;;;;;2.00;2.00;;;;;15.21;46.50;101677.38;4933626;28;45614;-65
2022/09/18 02:53:39;;;;;;;;;2.00;1.00;;;;;15.24;46.23;101675.63;4914300;28;45385;-64
2022/09/18 02:56:42;;;;;;;;;1.00;1.00;;;;;15.22;46.64;101669.47;4933172;28;45400;-64
2022/09/18 02:59:23;;;;;;;;;3.67;2.00;;;;;15.13;46.70;101672.13;4932884;28;45446;-65
2022/09/18 03:01:50;;;;;;;;;3.00;1.00;;;;;15.15;46.88;101665.09;4934413;28;45399;-65
2022/09/18 03:04:21;;;;;;;;;2.00;2.00;;;;;15.06;47.40;101651.91;4935067;28;45462;-65
2022/09/18 03:06:47;;;;;;;;;2.67;1.33;;;;;14.90;47.45;101642.25;4914018;28;45536;-65
2022/09/18 03:09:14;;;;;;;;;3.00;1.00;;;;;14.87;47.32;101647.53;4927442;28;46133;-68
2022/09/18 03:11:41;;;;;;;;;1.00;0.00;;;;;14.93;47.21;101647.56;4921271;28;45346;-67
2022/09/18 03:14:07;;;;;;;;;2.00;1.00;;;;;14.80;47.78;101646.66;4934160;28;45764;-68
2022/09/18 03:16:32;;;;;;;;;3.00;1.67;;;;;14.77;47.91;101651.94;4934560;28;45383;-66
2022/09/18 03:18:58;;;;;;;;;2.00;2.00;;;;;14.76;48.51;101658.09;4934396;28;45457;-66
2022/09/18 03:21:24;;;;;;;;;2.33;1.00;;;;;14.70;48.07;101637.88;4934770;28;45545;-68
2022/09/18 03:23:50;;;;;;;;;1.00;1.00;;;;;14.83;47.75;101647.56;4935517;28;45451;-67
2022/09/18 03:26:16;;;;;;;;;1.33;1.33;;;;;14.89;47.74;101648.44;4939149;28;45368;-69
2022/09/18 03:28:43;;;;;;;;;3.00;1.00;;;;;14.83;47.26;101636.13;4935251;28;45358;-70
2022/09/18 03:31:10;;;;;;;;;2.00;2.00;;;;;14.54;48.51;101620.31;4934198;28;45476;-67
2022/09/18 03:33:36;;;;;;;;;2.00;2.00;;;;;14.66;48.71;101648.44;4935747;28;45510;-70
2022/09/18 03:36:04;;;;;;;;;4.00;3.00;;;;;14.72;48.31;101651.09;4935903;28;45453;-67
2022/09/18 03:38:30;;;;;;;;;2.33;2.00;;;;;14.79;48.08;101656.34;4934710;28;45266;-68
2022/09/18 03:40:56;;;;;;;;;1.00;1.00;;;;;14.76;48.46;101639.63;4937196;28;45400;-67
2022/09/18 03:43:21;;;;;;;;;2.00;2.00;;;;;14.69;48.05;101644.06;4934919;28;45745;-69
2022/09/18 03:45:47;;;;;;;;;3.33;1.00;;;;;14.77;48.07;101641.41;4934494;28;46213;-69
2022/09/18 03:48:13;;;;;;;;;2.00;2.00;;;;;14.58;48.30;101628.22;4934219;28;46561;-65
2022/09/18 03:50:38;;;;;;;;;1.33;1.33;;;;;14.55;48.68;101640.53;4934859;28;45384;-65
2022/09/18 03:53:07;;;;;;;;;1.00;1.00;;;;;14.60;49.05;101644.91;4934626;28;45707;-66
2022/09/18 03:55:34;;;;;;;;;2.00;2.00;;;;;14.56;48.62;101640.53;4937378;28;45293;-65
2022/09/18 03:58:00;;;;;;;;;2.33;1.00;;;;;14.59;48.33;101645.81;4937727;28;45579;-66
2022/09/18 04:00:26;;;;;;;;;2.67;1.00;;;;;14.37;48.61;101617.66;4937820;28;45680;-71
2022/09/18 04:02:52;;;;;;;;;1.67;1.67;;;;;14.32;49.25;101629.94;4935162;28;45412;-70
2022/09/18 04:05:17;;;;;;;;;1.00;1.00;;;;;14.39;48.99;101642.25;4934861;28;45413;-68
2022/09/18 04:07:43;;;;;;;;;3.00;1.33;;;;;14.35;49.06;101630.81;4936881;28;46256;-65
2022/09/18 04:10:09;;;;;;;;;3.00;1.00;;;;;14.49;48.95;101644.00;4938541;28;45442;-67
2022/09/18 04:12:35;;;;;;;;;1.33;1.33;;;;;14.53;49.61;101637.00;4933000;28;45483;-64
2022/09/18 04:15:00;;;;;;;;;1.00;1.00;;;;;14.47;49.79;101643.13;4933880;28;45485;-66
2022/09/18 04:17:26;;;;;;;;;1.67;1.67;;;;;14.51;48.86;101647.53;4935176;28;46431;-66
2022/09/18 04:19:51;;;;;;;;;1.00;1.00;;;;;14.47;49.39;101642.25;4936610;28;45383;-66
2022/09/18 04:22:17;;;;;;;;;1.00;1.00;;;;;14.45;49.04;101621.19;4938413;28;45401;-66
2022/09/18 04:24:44;;;;;;;;;1.67;1.67;;;;;14.60;49.21;101649.31;4938319;28;45609;-65
2022/09/18 04:27:10;;;;;;;;;1.00;1.00;;;;;14.51;49.58;101646.66;4913188;28;45816;-64
2022/09/18 04:29:35;;;;;;;;;3.00;2.00;;;;;14.37;49.44;101626.44;4923245;28;45590;-66
2022/09/18 04:32:01;;;;;;;;;1.00;1.00;;;;;14.53;49.22;101648.41;4933856;28;45862;-65
2022/09/18 04:34:26;;;;;;;;;3.00;2.00;;;;;14.52;48.81;101630.84;4935567;28;45470;-65
2022/09/18 04:36:52;;;;;;;;;1.33;1.33;;;;;14.46;49.74;101644.00;4935830;28;46216;-64
2022/09/18 04:39:18;;;;;;;;;3.00;1.33;;;;;14.48;49.55;101644.03;4915504;28;45472;-65
2022/09/18 04:41:46;;;;;;;;;2.00;2.00;;;;;14.10;49.68;101587.78;4916533;28;45359;-65
2022/09/18 04:44:12;;;;;;;;;2.00;2.00;;;;;14.36;49.99;101632.59;4932255;28;45523;-65
2022/09/18 04:46:37;;;;;;;;;1.00;1.00;;;;;14.46;49.73;101643.13;4933252;28;47293;-66
2022/09/18 04:49:03;;;;;;;;;3.00;1.67;;;;;14.30;49.39;101642.25;4913366;28;45417;-66
2022/09/18 04:51:28;;;;;;;;;2.00;2.00;;;;;14.37;49.75;101655.41;4932232;28;45651;-65
2022/09/18 04:53:54;;;;;;;;;3.00;1.67;;;;;14.29;50.52;101659.81;4916185;28;45524;-65
2022/09/18 04:56:20;;;;;;;;;2.00;1.67;;;;;14.05;51.00;101636.94;4913537;28;45534;-65
2022/09/18 04:58:46;;;;;;;;;1.33;1.33;;;;;14.16;50.26;101645.72;4933207;28;45832;-65
2022/09/18 05:01:11;;;;;;;;;2.00;2.00;;;;;14.27;50.32;101653.66;4933342;28;45375;-65
2022/09/18 05:03:37;;;;;;;;;2.00;1.33;;;;;14.32;50.06;101651.91;4932433;28;45422;-64
2022/09/18 05:06:02;;;;;;;;;2.00;2.00;;;;;14.37;49.42;101654.53;4931834;28;46602;-65
2022/09/18 05:08:28;;;;;;;;;2.00;2.00;;;;;14.35;50.10;101654.53;4932315;28;45918;-67
2022/09/18 05:10:54;;;;;;;;;3.33;1.00;;;;;14.38;49.92;101649.28;4936064;28;45263;-65
2022/09/18 05:13:20;;;;;;;;;2.00;2.00;;;;;14.16;49.73;101613.22;4936179;28;45242;-66
2022/09/18 05:15:45;;;;;;;;;3.33;1.00;;;;;14.37;50.32;101665.97;4937168;28;45182;-65
2022/09/18 05:18:11;;;;;;;;;1.67;1.33;;;;;14.37;49.91;101654.53;4936977;28;45455;-64
2022/09/18 05:20:37;;;;;;;;;2.00;2.00;;;;;14.30;50.60;101656.28;4914511;28;45491;-65
2022/09/18 05:23:03;;;;;;;;;2.00;2.00;;;;;14.32;50.49;101656.31;4924885;28;45459;-65
2022/09/18 05:25:30;;;;;;;;;4.00;2.00;;;;;14.37;50.21;101658.06;4910102;28;48071;-64
2022/09/18 05:27:58;;;;;;;;;2.33;2.33;;;;;14.36;50.15;101656.31;4931545;28;45474;-66
2022/09/18 05:30:25;;;;;;;;;2.00;2.00;;;;;14.39;50.02;101664.22;4948670;28;45308;-69
2022/09/18 05:32:59;;;;;;;;;2.00;2.00;;;;;14.40;49.51;101655.44;4917189;28;45502;-66
2022/09/18 05:35:27;;;;;;;;;1.67;1.67;;;;;14.41;49.60;101657.19;4984517;28;45476;-66
2022/09/18 05:37:54;;;;;;;;;3.00;3.00;;;;;14.52;49.50;101657.22;4924135;28;45357;-66
2022/09/18 05:40:22;;;;;;;;;2.33;2.33;;;;;14.56;49.31;101663.38;4931096;28;45400;-71
2022/09/18 05:42:49;;;;;;;;;3.00;3.00;;;;;14.51;49.12;101649.28;5013496;28;45306;-69
2022/09/18 05:45:15;;;;;;;;;2.33;1.33;;;;;14.58;49.56;101651.94;5034587;28;46821;-71
2022/09/18 05:47:42;;;;;;;;;2.00;2.00;;;;;14.65;49.55;101668.66;4962721;28;45449;-71
2022/09/18 05:50:08;;;;;;;;;2.67;1.67;;;;;14.63;49.42;101665.13;5032663;28;45425;-65
2022/09/18 05:52:38;;;;;;;;;5.33;2.00;;;;;14.69;49.17;101662.50;4965925;28;45517;-65
2022/09/18 05:55:04;;;;;;;;;4.00;2.00;;;;;14.68;49.72;101650.19;4928470;28;46561;-64
2022/09/18 05:57:30;;;;;;;;;3.00;2.00;;;;;14.79;49.15;101660.75;4913003;28;45517;-65
2022/09/18 05:59:55;;;;;;;;;3.00;3.00;;;;;14.84;49.11;101661.63;4977927;28;45258;-69
2022/09/18 06:02:21;;;;;;;;;2.00;2.00;;;;;14.81;48.76;101651.94;4942162;28;45545;-68
2022/09/18 06:04:47;;;;;;;;;1.00;1.00;;;;;14.75;48.63;101622.06;4954977;28;45768;-65
2022/09/18 06:07:15;;;;;;;;;1.00;1.00;;;;;15.15;48.35;101662.44;4992585;28;45395;-65
2022/09/18 06:09:40;;;;;;;;;4.00;2.00;;;;;15.21;48.02;101658.91;4947220;28;45767;-66
2022/09/18 06:12:06;;;;;;;;;1.33;1.33;;;;;15.23;48.28;101665.97;4985247;28;45352;-69
2022/09/18 06:14:31;;;;;;;;;1.00;1.00;;;;;15.25;48.53;101658.88;5008703;28;47567;-70
2022/09/18 06:16:59;;;;;;;;;3.00;2.00;;;;;15.27;48.78;101670.31;4984117;28;45360;-71
2022/09/18 06:19:25;;;;;;;;;1.67;1.00;;;;;14.98;49.52;101659.84;5008731;28;45478;-69
2022/09/18 06:21:51;;;;;;;;;2.00;2.00;;;;;15.05;49.38;101677.41;4976275;28;45540;-66
2022/09/18 06:24:16;;;;;;;;;2.00;1.00;;;;;14.98;49.05;101662.47;4976971;28;45512;-66
2022/09/18 06:26:42;;;;;;;;;2.00;2.00;;;;;15.19;48.70;101668.59;4980446;28;45310;-66
2022/09/18 06:29:08;;;;;;;;;1.00;1.00;;;;;15.38;48.51;101677.34;4926811;28;45491;-66
2022/09/18 06:31:33;;;;;;;;;2.00;1.67;;;;;15.47;48.00;101682.59;5007721;28;45401;-65
2022/09/18 06:33:58;;;;;;;;;1.00;1.00;;;;;15.62;47.66;101671.97;4938323;28;45581;-66
2022/09/18 06:36:24;;;;;;;;;1.33;1.33;;;;;15.71;47.54;101671.13;4926354;28;45427;-65
2022/09/18 06:38:50;;;;;;;;;1.33;1.33;;;;;15.82;47.36;101682.47;4924108;28;45901;-65
2022/09/18 06:41:16;;;;;;;;;2.00;2.00;;;;;15.85;47.27;101673.66;4933331;28;46227;-65
2022/09/18 06:43:41;;;;;;;;;2.00;1.00;;;;;15.93;46.83;101671.88;4935788;28;46377;-66
2022/09/18 06:46:09;;;;;;;;;2.00;2.00;;;;;16.08;47.06;101681.47;4927731;28;45578;-66
2022/09/18 06:48:35;;;;;;;;;3.00;2.00;;;;;15.89;46.74;101639.31;4931986;28;45451;-65
2022/09/18 06:51:01;;;;;;;;;2.00;2.00;;;;;16.23;46.48;101680.50;4933913;28;45358;-69
2022/09/18 06:53:27;;;;;;;;;1.00;1.00;;;;;16.30;46.63;101676.94;4932270;28;46584;-68
2022/09/18 06:55:57;;;;;;;;;1.00;1.00;;;;;16.33;46.34;101672.50;4932275;28;45671;-69
2022/09/18 06:58:22;;;;;;;;;2.00;2.00;;;;;16.33;46.01;101658.44;4911744;28;45400;-69
2022/09/18 07:00:48;;;;;;;;;2.33;2.00;;;;;16.37;46.23;101652.19;4924431;28;45467;-67
2022/09/18 07:03:14;;;;;;;;;4.00;3.00;;;;;16.54;46.46;101675.91;4931785;28;46210;-66
2022/09/18 07:05:41;;;;;;;;;6.33;4.67;;;;;16.52;46.11;101660.03;4911603;28;45452;-65
2022/09/18 07:08:08;;;;;;;;;4.33;3.00;;;;;16.63;46.16;101669.63;4911418;28;45518;-67
2022/09/18 07:10:34;;;;;;;;;3.00;3.00;;;;;16.68;46.04;101671.38;4915951;28;45333;-70
2022/09/18 07:13:01;;;;;;;;;2.67;2.33;;;;;16.73;46.02;101680.16;4930004;28;45482;-65
2022/09/18 07:15:27;;;;;;;;;2.00;1.00;;;;;16.81;46.07;101673.94;4933286;28;45450;-71
2022/09/18 07:18:01;;;;;;;;;2.00;2.00;;;;;16.89;45.63;101678.25;4915484;28;45436;-70
2022/09/18 07:20:28;;;;;;;;;1.33;1.33;;;;;16.98;45.59;101682.59;4933170;28;45519;-71
2022/09/18 07:22:58;;;;;;;;;1.00;1.00;;;;;17.05;45.61;101680.78;4916346;28;46827;-67
2022/09/18 07:25:28;;;;;;;;;5.33;2.00;;;;;17.08;45.50;101678.09;4934871;28;45915;-66
2022/09/18 07:27:55;;;;;;;;;4.00;2.00;;;;;17.10;45.41;101671.00;4913949;28;45495;-66
2022/09/18 07:30:21;;;;;;;;;2.00;2.00;;;;;17.11;45.42;101673.66;4934760;28;45584;-65
2022/09/18 07:32:50;;;;;;;;;3.67;2.00;;;;;17.14;45.38;101676.25;4971140;28;46272;-67
2022/09/18 07:35:20;;;;;;;;;2.00;2.00;;;;;16.99;45.20;101641.13;4937972;28;45726;-65
2022/09/18 07:37:46;;;;;;;;;2.00;2.00;;;;;17.24;45.12;101684.97;4940564;28;45490;-69
2022/09/18 07:40:11;;;;;;;;;3.33;2.67;;;;;17.20;45.34;101669.16;5007154;28;45804;-70
2022/09/18 07:42:38;;;;;;;;;4.00;2.00;;;;;17.32;45.04;101675.19;5002951;28;46175;-70
2022/09/18 07:45:04;;;;;;;;;1.67;1.67;;;;;17.32;45.29;101674.31;4955580;28;45554;-65
2022/09/18 07:47:30;;;;;;;;;2.33;2.33;;;;;17.38;45.03;101676.91;5011836;28;45480;-70
2022/09/18 07:49:56;;;;;;;;;1.00;1.00;;;;;17.49;45.03;101682.09;4987785;28;45528;-70
2022/09/18 07:52:21;;;;;;;;;4.67;3.67;;;;;17.55;45.09;101685.50;5012953;28;45332;-70
2022/09/18 07:54:47;;;;;;;;;3.67;3.67;;;;;17.55;44.80;101669.63;4996146;28;45295;-66
2022/09/18 07:57:14;;;;;;;;;2.00;2.00;;;;;17.53;45.09;101652.00;4925815;28;45410;-69
2022/09/18 07:59:39;;;;;;;;;3.00;2.67;;;;;17.52;44.73;101643.19;4978352;28;45515;-69
2022/09/18 08:02:05;;;;;;;;;2.33;2.00;;;;;17.68;45.37;101665.06;4938468;28;46896;-67
2022/09/18 08:04:30;;;;;;;;;2.00;2.00;;;;;17.90;45.58;101686.88;5002043;28;45553;-65
2022/09/18 08:07:02;;;;;;;;;2.00;2.00;;;;;18.03;44.80;101690.22;5025935;28;45415;-65
2022/09/18 08:09:28;;;;;;;;;2.00;2.00;;;;;18.09;44.63;101684.84;5033091;28;45580;-64
2022/09/18 08:11:54;;;;;;;;;2.67;1.00;;;;;18.16;44.26;101683.00;5026302;28;45456;-70
2022/09/18 08:14:19;;;;;;;;;2.00;1.33;;;;;18.17;44.04;101677.66;5029373;28;45329;-67
2022/09/18 08:16:45;;;;;;;;;2.00;1.00;;;;;18.19;44.17;101675.88;5020145;28;45717;-65
2022/09/18 08:19:11;;;;;;;;;2.00;2.00;;;;;18.32;44.15;101678.31;5027981;28;45381;-66
2022/09/18 08:21:37;;;;;;;;;2.33;2.00;;;;;18.28;43.85;101669.56;5024928;28;45642;-68
2022/09/18 08:24:03;;;;;;;;;1.00;1.00;;;;;18.49;43.73;101683.41;5003433;28;45431;-66
2022/09/18 08:26:29;;;;;;;;;5.00;3.00;;;;;18.47;43.71;101688.72;5028646;28;45455;-69
2022/09/18 08:28:55;;;;;;;;;4.00;2.67;;;;;18.39;43.69;101680.03;5022623;28;45749;-65
2022/09/18 08:31:20;;;;;;;;;2.00;2.00;;;;;18.38;43.66;101673.81;5028467;28;46264;-65
2022/09/18 08:33:46;;;;;;;;;4.00;3.00;;;;;18.49;43.68;101686.91;4963327;28;45476;-65
2022/09/18 08:36:11;;;;;;;;;4.00;2.67;;;;;18.46;43.65;101686.09;4916214;28;45492;-67
2022/09/18 08:38:37;;;;;;;;;3.00;3.00;;;;;18.60;43.62;101697.34;4934133;28;45670;-65
2022/09/18 08:41:14;;;;;;;;;5.00;3.00;;;;;18.65;43.31;101687.56;4936487;28;46088;-67
2022/09/18 08:44:03;;;;;;;;;2.00;2.00;;;;;18.65;43.42;101688.44;4937979;28;45474;-67
2022/09/18 08:46:40;;;;;;;;;3.00;2.00;;;;;18.66;43.37;101689.31;4936068;28;45487;-67
2022/09/18 08:49:36;;;;;;;;;3.00;2.00;;;;;18.76;43.45;101696.22;4933478;28;45553;-67
2022/09/18 08:52:22;;;;;;;;;2.00;2.00;;;;;18.80;43.31;101686.47;4934142;28;45505;-67
2022/09/18 08:55:10;;;;;;;;;2.33;2.33;;;;;18.95;43.15;101696.78;4933391;28;45415;-67
2022/09/18 08:57:38;;;;;;;;;3.00;1.67;;;;;19.06;42.90;101686.00;4936535;28;45316;-67
2022/09/18 09:00:18;;;;;;;;;2.67;1.67;;;;;19.12;42.67;101680.56;4934160;28;45606;-65
2022/09/18 09:02:53;;;;;;;;;1.00;1.00;;;;;19.21;42.69;101679.53;4933012;28;46196;-67
2022/09/18 09:05:38;;;;;;;;;1.67;1.67;;;;;19.34;41.89;101696.09;4933096;28;45845;-66
2022/09/18 09:08:17;;;;;;;;;1.00;1.00;;;;;19.40;41.65;101683.56;4932999;28;45400;-65
2022/09/18 09:10:46;;;;;;;;;2.00;2.00;;;;;19.38;41.84;101679.19;4933236;28;45566;-67
2022/09/18 09:13:39;;;;;;;;;2.00;2.00;;;;;19.47;41.46;101685.19;4937237;28;46485;-66
2022/09/18 09:16:31;;;;;;;;;2.00;2.00;;;;;19.48;41.21;101680.75;4917389;28;45530;-67
2022/09/18 09:19:15;;;;;;;;;2.00;1.33;;;;;19.62;40.65;101683.13;4932594;28;45399;-66
2022/09/18 09:21:54;;;;;;;;;1.00;1.00;;;;;19.66;40.41;101664.44;4976582;28;45730;-67
2022/09/18 09:24:32;;;;;;;;;1.00;1.00;;;;;19.70;40.82;101667.94;4933758;28;47269;-66
2022/09/18 09:27:04;;;;;;;;;3.00;2.00;;;;;19.84;40.56;101672.97;4932490;28;45332;-66
2022/09/18 09:29:35;;;;;;;;;5.33;2.00;;;;;19.91;39.92;101677.25;4933388;28;45481;-68
2022/09/18 09:32:21;;;;;;;;;3.00;2.00;;;;;19.92;39.64;101660.38;4933451;28;45591;-65
2022/09/18 09:34:54;;;;;;;;;4.00;2.67;;;;;20.01;39.67;101661.97;4922611;28;45495;-65
2022/09/18 09:37:35;;;;;;;;;2.33;2.33;;;;;20.11;40.01;101669.69;4916791;28;45449;-65
2022/09/18 09:40:10;;;;;;;;;3.33;3.33;;;;;20.14;39.58;101655.44;4920047;28;45559;-66
2022/09/18 09:43:23;;;;;;;;;3.00;2.00;;;;;20.15;39.93;101673.16;4918052;28;45407;-67
2022/09/18 09:45:58;;;;;;;;;1.67;1.67;;;;;20.27;39.87;101654.25;4931545;28;45516;-66
2022/09/18 09:48:29;;;;;;;;;1.00;1.00;;;;;20.47;39.75;101666.19;4937530;28;45341;-66
2022/09/18 09:51:21;;;;;;;;;1.00;1.00;;;;;20.60;39.81;101665.03;4937238;28;45365;-64
2022/09/18 09:53:48;;;;;;;;;1.00;1.00;;;;;20.74;39.28;101672.66;4936434;28;45336;-66
2022/09/18 09:56:28;;;;;;;;;1.00;1.00;;;;;20.87;38.53;101670.56;4936074;28;45990;-66
2022/09/18 09:59:11;;;;;;;;;2.00;2.00;;;;;20.99;37.79;101662.25;4921394;28;45514;-69
2022/09/18 10:01:46;;;;;;;;;3.67;2.00;;;;;21.06;37.14;101652.31;4930591;28;45456;-65
2022/09/18 10:04:34;;;;;;;;;1.33;1.33;;;;;21.23;36.33;101655.38;4933692;28;45569;-66
2022/09/18 10:07:21;;;;;;;;;1.00;1.00;;;;;21.36;37.94;101664.78;4932111;28;46137;-66
2022/09/18 10:10:28;;;;;;;;;1.00;1.00;;;;;21.42;35.82;101639.75;4931690;28;45476;-66
2022/09/18 10:13:04;;;;;;;;;1.00;0.67;;;;;21.64;36.75;101653.34;4913042;28;45415;-64
2022/09/18 10:15:33;;;;;;;;;1.00;1.00;;;;;21.84;36.27;101657.22;4919779;28;45461;-65
2022/09/18 10:18:03;;;;;;;;;1.00;0.00;;;;;22.00;36.24;101643.34;4935076;28;45501;-67
2022/09/18 10:20:31;;;;;;;;;1.33;1.00;;;;;22.10;35.24;101651.06;4936053;28;45228;-66
2022/09/18 10:23:15;;;;;;;;;2.00;0.33;;;;;22.17;35.58;101645.50;4936687;28;45314;-65
2022/09/18 10:25:51;;;;;;;;;1.00;1.00;;;;;22.28;34.87;101642.53;4918778;28;45564;-67
2022/09/18 10:28:16;;;;;;;;;1.00;1.00;;;;;22.34;35.18;101644.97;4927699;28;47738;-66
2022/09/18 10:31:02;;;;;;;;;2.00;2.00;;;;;22.46;34.62;101637.50;4931539;28;45550;-67
2022/09/18 10:33:40;;;;;;;;;1.00;1.00;;;;;22.47;35.45;101632.13;4935618;28;45444;-65
2022/09/18 10:36:14;;;;;;;;;2.00;1.00;;;;;22.44;35.54;101630.38;4935510;28;45526;-68
2022/09/18 10:38:41;;;;;;;;;1.00;1.00;;;;;22.43;35.16;101607.31;4935299;28;47805;-68
2022/09/18 10:41:29;;;;;;;;;1.00;1.00;;;;;22.78;34.76;101631.03;4951657;28;45389;-64
2022/09/18 10:44:20;;;;;;;;;2.67;1.00;;;;;23.04;34.05;101624.81;4943424;28;45463;-66
2022/09/18 10:46:53;;;;;;;;;0.67;0.67;;;;;23.18;34.15;101598.47;4941586;28;45534;-67
2022/09/18 10:49:52;;;;;;;;;1.33;1.33;;;;;23.51;32.27;101622.19;4950948;28;45551;-66
2022/09/18 10:52:33;;;;;;;;;1.00;1.00;;;;;23.77;32.78;101623.88;4934128;28;45620;-64
2022/09/18 10:55:05;;;;;;;;;0.00;0.00;;;;;23.92;32.41;101615.25;4942049;28;45296;-66
2022/09/18 10:57:36;;;;;;;;;1.00;1.00;;;;;24.17;32.48;101616.06;4943634;28;45499;-65
2022/09/18 11:00:24;;;;;;;;;3.00;1.00;;;;;24.39;31.66;101610.69;4929925;28;46340;-67
2022/09/18 11:03:14;;;;;;;;;2.00;2.00;;;;;24.81;31.06;101609.84;4966219;28;45539;-65
2022/09/18 11:05:52;;;;;;;;;1.00;1.00;;;;;25.14;30.88;101615.50;4954379;28;45656;-64
2022/09/18 11:08:23;;;;;;;;;1.00;1.00;;;;;25.16;30.07;101605.59;4931915;28;45597;-67
2022/09/18 11:10:55;;;;;;;;;3.00;3.00;;;;;24.96;30.66;101607.34;4963416;28;46341;-66
2022/09/18 11:13:24;;;;;;;;;2.33;1.67;;;;;25.11;30.03;101605.78;4932856;28;45519;-67
2022/09/18 11:15:55;;;;;;;;;3.00;2.33;;;;;26.05;29.64;101600.56;4937562;28;45447;-69
2022/09/18 11:18:23;;;;;;;;;1.00;1.00;;;;;28.15;28.49;101602.81;4983022;28;45865;-70
2022/09/18 11:20:50;;;;;;;;;1.50;1.00;;;;;30.04;25.18;101595.66;4926536;28;45741;-67
2022/09/18 11:23:28;;;;;;;;;1.25;1.25;;;;;31.83;23.28;101596.66;4960347;28;45599;-72
2022/09/18 11:26:29;;;;;;;;;1.50;1.25;;;;;33.16;21.41;101592.84;4937224;28;45720;-69
2022/09/18 11:29:01;;;;;;;;;1.00;1.00;;;;;34.12;20.92;101599.50;4960851;28;45708;-65
2022/09/18 11:31:46;;;;;;;;;1.75;1.00;;;;;34.92;19.23;101598.09;4945226;28;46684;-75
2022/09/18 11:34:44;;;;;;;;;1.40;1.00;;;;;34.78;19.65;101597.44;4930745;28;45644;-72
2022/09/18 11:37:21;;;;;;;;;1.00;1.00;;;;;35.35;19.52;101594.31;4917104;28;45320;-74
2022/09/18 11:39:57;;;;;;;;;1.25;1.25;;;;;35.95;18.70;101587.03;4938257;28;45344;-65
2022/09/18 11:42:23;;;;;;;;;1.60;1.00;;;;;33.75;19.85;101589.84;4936324;28;45570;-66
2022/09/18 11:44:51;;;;;;;;;1.00;1.00;;;;;33.27;20.43;101573.84;4933250;28;45604;-65